Flight Track Log - Related Links

Times and Time Zones

All times are in EDT time to prevent confusion due to time zone crossing. See the GGN7280 flight status page for this flight to view local times or setup timezone preferences in your user account.

Time Position Orientation Groundspeed Altitude Reporting Facility
EDT Latitude Longitude Course Direction KTS MPH feet Rate Location/Type
Thu 04:59:20 PM 43.6667 -79.5833 180° South 60 69 800  Level Toronto Center
Thu 05:00:20 PM 43.6333 -79.5833 180° South 130 150 2,500 1,700 Climbing Toronto Center
Thu 05:01:20 PM 43.5833 -79.5833 180° South 140 161 4,200 1,250 Climbing Toronto Center
Thu 05:02:20 PM 43.5667 -79.5167 109° East 200 230 5,000 1,150 Climbing Toronto Center
Thu 05:03:20 PM 43.5500 -79.4333 105° East 240 276 6,500 1,450 Climbing Toronto Center
Thu 05:04:20 PM 43.5333 -79.3333 103° East 230 265 7,900 950 Climbing Toronto Center
Thu 05:05:20 PM 43.5167 -79.2500 105° East 250 288 8,400 1,300 Climbing Toronto Center
Thu 05:06:20 PM 43.5000 -79.1500 103° East 240 276 10,500 1,300 Climbing Toronto Center
Thu 05:07:20 PM 43.4667 -79.0833 125° Southeast 240 276 11,000 250 Climbing Toronto Center
Thu 05:08:20 PM 43.4500 -78.9667 101° East 280 322 11,000  Level Toronto Center
Thu 05:09:20 PM 43.4167 -78.8500 111° Southeast 290 334 11,000  Level Toronto Center
Thu 05:10:20 PM 43.4000 -78.7667 105° East 300 345 11,000  Level Toronto Center
Thu 05:11:20 PM 43.3667 -78.6500 111° Southeast 290 334 11,000  Level Toronto Center
Thu 05:11:38 PM 43.3692 -78.6442 59° Northeast 289 333 11,000  Level Cleveland Center
Thu 05:12:38 PM 43.3444 -78.5394 108° East 289 333 11,000 54 Level Cleveland Center
Thu 05:13:30 PM 43.3158 -78.4489 113° Southeast 286 329 11,100 79 Climbing Cleveland Center
Thu 05:13:54 PM 43.3044 -78.4008 108° East 289 333 11,100 -176 Level Cleveland Center
Thu 05:14:38 PM 43.2908 -78.3331 105° East 289 333 10,900 -98 Descending Cleveland Center
Thu 05:14:55 PM 43.2775 -78.2936 115° Southeast 293 337 11,000  Climbing Cleveland Center
Thu 05:15:38 PM 43.2614 -78.2256 108° East 289 333 10,900  Descending Cleveland Center
Thu 05:15:55 PM 43.2503 -78.1889 113° Southeast 291 335 11,000 100 Climbing Cleveland Center
Thu 05:16:38 PM 43.2364 -78.1239 106° East 289 333 11,000 -90 Level Cleveland Center
Thu 05:17:02 PM 43.2211 -78.0819 117° Southeast 281 323 10,900 -900 Descending Cleveland Center
Thu 05:17:38 PM 43.2092 -78.0225 105° East 284 327 10,100 -1,563 Descending Cleveland Center
Thu 05:18:38 PM 43.2131 -77.9142 87° East 278 320 8,400 -1,850 Descending Cleveland Center
Thu 05:19:38 PM 43.2189 -77.8114 86° East 273 314 6,400 -2,150 Descending Cleveland Center
Thu 05:20:38 PM 43.2208 -77.7172 88° East 259 298 4,100 -1,950 Descending Cleveland Center
Thu 05:21:38 PM 43.1944 -77.6614 123° Southeast 195 224 2,500 -1,317 Descending Cleveland Center
Thu 05:22:41 PM 43.1567 -77.6547 173° South 109 125 1,400 -871 Descending Cleveland Center
Thu 05:23:42 PM 43.1239 -77.6761 205° Southwest 122 140 700 -689 Descending Cleveland Center
Thu 05:25:00 PM 43.1167 -77.6667 North  Level FlightAware Approximate
Thu 05:32:00 PM 43.1191 -77.6719 North  Level Estimated

Login

Don't have an account? Register now (free) for customized features, flight alerts, and more!